sensor_id;sensor_type;location;lat;lon;timestamp;P1;durP1;ratioP1;P2;durP2;ratioP2
1467;SDS011;727;48.892;9.544;2023-02-24T00:02:00;11.45;;;10.07;;
1467;SDS011;727;48.892;9.544;2023-02-24T00:04:30;18.83;;;11.73;;
1467;SDS011;727;48.892;9.544;2023-02-24T00:06:57;12.38;;;11.05;;
1467;SDS011;727;48.892;9.544;2023-02-24T00:09:27;13.55;;;10.88;;
1467;SDS011;727;48.892;9.544;2023-02-24T00:11:55;11.93;;;10.73;;
1467;SDS011;727;48.892;9.544;2023-02-24T00:14:24;16.15;;;12.20;;
1467;SDS011;727;48.892;9.544;2023-02-24T00:16:53;12.43;;;11.15;;
1467;SDS011;727;48.892;9.544;2023-02-24T00:19:21;15.52;;;11.35;;
1467;SDS011;727;48.892;9.544;2023-02-24T00:21:49;12.23;;;10.95;;
1467;SDS011;727;48.892;9.544;2023-02-24T00:24:18;16.45;;;11.75;;
1467;SDS011;727;48.892;9.544;2023-02-24T00:26:50;14.48;;;13.00;;
1467;SDS011;727;48.892;9.544;2023-02-24T00:29:19;15.75;;;14.13;;
1467;SDS011;727;48.892;9.544;2023-02-24T00:31:48;14.23;;;11.50;;
1467;SDS011;727;48.892;9.544;2023-02-24T00:34:20;13.88;;;11.68;;
1467;SDS011;727;48.892;9.544;2023-02-24T00:36:47;15.60;;;13.15;;
1467;SDS011;727;48.892;9.544;2023-02-24T00:39:14;12.20;;;10.75;;
1467;SDS011;727;48.892;9.544;2023-02-24T00:41:42;13.68;;;11.73;;
1467;SDS011;727;48.892;9.544;2023-02-24T00:44:13;12.00;;;10.68;;
1467;SDS011;727;48.892;9.544;2023-02-24T00:46:41;12.60;;;11.13;;
1467;SDS011;727;48.892;9.544;2023-02-24T00:49:10;16.13;;;13.15;;
1467;SDS011;727;48.892;9.544;2023-02-24T00:51:42;15.05;;;13.05;;
1467;SDS011;727;48.892;9.544;2023-02-24T00:54:10;21.08;;;14.55;;
1467;SDS011;727;48.892;9.544;2023-02-24T00:56:39;19.60;;;14.15;;
1467;SDS011;727;48.892;9.544;2023-02-24T00:59:06;15.60;;;14.00;;
1467;SDS011;727;48.892;9.544;2023-02-24T01:01:36;13.60;;;12.25;;
1467;SDS011;727;48.892;9.544;2023-02-24T01:04:05;14.38;;;11.80;;
1467;SDS011;727;48.892;9.544;2023-02-24T01:06:37;14.18;;;12.73;;
1467;SDS011;727;48.892;9.544;2023-02-24T01:09:05;11.98;;;10.77;;
1467;SDS011;727;48.892;9.544;2023-02-24T01:11:36;18.25;;;13.68;;
1467;SDS011;727;48.892;9.544;2023-02-24T01:14:21;17.58;;;12.30;;
1467;SDS011;727;48.892;9.544;2023-02-24T01:16:52;15.70;;;12.82;;
1467;SDS011;727;48.892;9.544;2023-02-24T01:19:20;15.40;;;13.80;;
1467;SDS011;727;48.892;9.544;2023-02-24T01:21:48;16.65;;;15.02;;
1467;SDS011;727;48.892;9.544;2023-02-24T01:24:19;17.55;;;15.73;;
1467;SDS011;727;48.892;9.544;2023-02-24T01:26:46;15.73;;;14.07;;
1467;SDS011;727;48.892;9.544;2023-02-24T01:29:13;16.33;;;14.07;;
1467;SDS011;727;48.892;9.544;2023-02-24T01:31:40;25.35;;;14.85;;
1467;SDS011;727;48.892;9.544;2023-02-24T01:34:09;18.73;;;14.75;;
1467;SDS011;727;48.892;9.544;2023-02-24T01:36:38;16.15;;;13.48;;
1467;SDS011;727;48.892;9.544;2023-02-24T01:39:08;14.75;;;12.70;;
1467;SDS011;727;48.892;9.544;2023-02-24T01:41:37;18.98;;;14.18;;
1467;SDS011;727;48.892;9.544;2023-02-24T01:44:06;15.68;;;14.00;;
1467;SDS011;727;48.892;9.544;2023-02-24T01:46:53;18.15;;;13.70;;
1467;SDS011;727;48.892;9.544;2023-02-24T01:49:23;17.85;;;13.73;;
1467;SDS011;727;48.892;9.544;2023-02-24T01:51:55;14.65;;;13.02;;
1467;SDS011;727;48.892;9.544;2023-02-24T01:54:26;19.88;;;14.32;;
1467;SDS011;727;48.892;9.544;2023-02-24T01:56:57;17.90;;;15.95;;
1467;SDS011;727;48.892;9.544;2023-02-24T01:59:27;30.42;;;20.55;;
1467;SDS011;727;48.892;9.544;2023-02-24T02:01:56;38.55;;;28.13;;
1467;SDS011;727;48.892;9.544;2023-02-24T02:04:33;29.38;;;20.73;;
1467;SDS011;727;48.892;9.544;2023-02-24T02:07:06;20.35;;;16.58;;
1467;SDS011;727;48.892;9.544;2023-02-24T02:09:36;17.98;;;16.17;;
1467;SDS011;727;48.892;9.544;2023-02-24T02:12:05;18.13;;;15.23;;
1467;SDS011;727;48.892;9.544;2023-02-24T02:14:33;21.17;;;15.82;;
1467;SDS011;727;48.892;9.544;2023-02-24T02:17:05;17.88;;;14.70;;
1467;SDS011;727;48.892;9.544;2023-02-24T02:19:54;18.98;;;16.30;;
1467;SDS011;727;48.892;9.544;2023-02-24T02:22:47;19.70;;;15.07;;
1467;SDS011;727;48.892;9.544;2023-02-24T02:25:32;21.38;;;15.48;;
1467;SDS011;727;48.892;9.544;2023-02-24T02:28:18;16.45;;;14.65;;
1467;SDS011;727;48.892;9.544;2023-02-24T02:31:10;18.85;;;15.38;;
1467;SDS011;727;48.892;9.544;2023-02-24T02:34:08;17.08;;;15.00;;
1467;SDS011;727;48.892;9.544;2023-02-24T02:39:34;19.13;;;15.25;;
1467;SDS011;727;48.892;9.544;2023-02-24T02:42:14;20.08;;;15.85;;
1467;SDS011;727;48.892;9.544;2023-02-24T02:44:50;22.45;;;15.68;;
1467;SDS011;727;48.892;9.544;2023-02-24T02:47:23;27.33;;;17.27;;
1467;SDS011;727;48.892;9.544;2023-02-24T02:49:55;18.85;;;15.10;;
1467;SDS011;727;48.892;9.544;2023-02-24T02:52:27;20.38;;;16.63;;
1467;SDS011;727;48.892;9.544;2023-02-24T02:54:59;18.95;;;17.05;;
1467;SDS011;727;48.892;9.544;2023-02-24T02:57:32;24.35;;;16.83;;
1467;SDS011;727;48.892;9.544;2023-02-24T03:00:03;20.25;;;17.08;;
1467;SDS011;727;48.892;9.544;2023-02-24T03:02:37;23.02;;;18.67;;
1467;SDS011;727;48.892;9.544;2023-02-24T03:05:10;22.65;;;18.40;;
1467;SDS011;727;48.892;9.544;2023-02-24T03:07:42;25.90;;;20.23;;
1467;SDS011;727;48.892;9.544;2023-02-24T03:10:14;30.00;;;23.08;;
1467;SDS011;727;48.892;9.544;2023-02-24T03:12:47;23.83;;;19.33;;
1467;SDS011;727;48.892;9.544;2023-02-24T03:15:17;25.33;;;19.85;;
1467;SDS011;727;48.892;9.544;2023-02-24T03:17:46;21.52;;;17.65;;
1467;SDS011;727;48.892;9.544;2023-02-24T03:20:23;22.48;;;18.55;;
1467;SDS011;727;48.892;9.544;2023-02-24T03:22:54;24.13;;;18.30;;
1467;SDS011;727;48.892;9.544;2023-02-24T03:25:29;27.42;;;16.85;;
1467;SDS011;727;48.892;9.544;2023-02-24T03:28:03;19.05;;;16.20;;
1467;SDS011;727;48.892;9.544;2023-02-24T03:30:38;19.52;;;17.52;;
1467;SDS011;727;48.892;9.544;2023-02-24T03:33:08;19.70;;;17.60;;
1467;SDS011;727;48.892;9.544;2023-02-24T03:35:43;21.42;;;16.27;;
1467;SDS011;727;48.892;9.544;2023-02-24T03:38:10;23.67;;;18.67;;
1467;SDS011;727;48.892;9.544;2023-02-24T03:40:38;20.80;;;17.30;;
1467;SDS011;727;48.892;9.544;2023-02-24T03:43:08;23.55;;;19.42;;
1467;SDS011;727;48.892;9.544;2023-02-24T03:45:40;19.50;;;16.63;;
1467;SDS011;727;48.892;9.544;2023-02-24T03:48:08;23.80;;;17.50;;
1467;SDS011;727;48.892;9.544;2023-02-24T03:50:37;26.23;;;18.92;;
1467;SDS011;727;48.892;9.544;2023-02-24T03:53:10;25.27;;;20.40;;
1467;SDS011;727;48.892;9.544;2023-02-24T03:55:57;24.88;;;20.17;;
1467;SDS011;727;48.892;9.544;2023-02-24T03:58:31;26.83;;;22.85;;
1467;SDS011;727;48.892;9.544;2023-02-24T04:01:08;30.70;;;23.38;;
1467;SDS011;727;48.892;9.544;2023-02-24T04:03:42;31.75;;;22.45;;
1467;SDS011;727;48.892;9.544;2023-02-24T04:06:24;25.95;;;20.65;;
1467;SDS011;727;48.892;9.544;2023-02-24T04:08:59;24.05;;;19.50;;
1467;SDS011;727;48.892;9.544;2023-02-24T04:11:33;27.95;;;20.52;;
1467;SDS011;727;48.892;9.544;2023-02-24T04:14:05;30.70;;;22.65;;
1467;SDS011;727;48.892;9.544;2023-02-24T04:16:37;34.25;;;22.85;;
1467;SDS011;727;48.892;9.544;2023-02-24T04:19:11;30.00;;;22.05;;
1467;SDS011;727;48.892;9.544;2023-02-24T04:21:42;28.58;;;23.02;;
1467;SDS011;727;48.892;9.544;2023-02-24T04:24:14;30.17;;;23.45;;
1467;SDS011;727;48.892;9.544;2023-02-24T04:26:45;37.13;;;25.83;;
1467;SDS011;727;48.892;9.544;2023-02-24T04:29:14;27.77;;;21.33;;
1467;SDS011;727;48.892;9.544;2023-02-24T04:31:47;31.40;;;23.17;;
1467;SDS011;727;48.892;9.544;2023-02-24T04:34:17;33.63;;;22.20;;
1467;SDS011;727;48.892;9.544;2023-02-24T04:36:44;44.88;;;27.08;;
1467;SDS011;727;48.892;9.544;2023-02-24T04:39:15;43.15;;;26.80;;
1467;SDS011;727;48.892;9.544;2023-02-24T04:41:44;41.65;;;28.80;;
1467;SDS011;727;48.892;9.544;2023-02-24T04:44:13;33.67;;;25.55;;
1467;SDS011;727;48.892;9.544;2023-02-24T04:46:41;37.63;;;26.80;;
1467;SDS011;727;48.892;9.544;2023-02-24T04:49:08;29.27;;;23.30;;
1467;SDS011;727;48.892;9.544;2023-02-24T04:51:36;30.08;;;23.13;;
1467;SDS011;727;48.892;9.544;2023-02-24T04:54:06;31.05;;;23.00;;
1467;SDS011;727;48.892;9.544;2023-02-24T04:56:35;45.10;;;34.40;;
1467;SDS011;727;48.892;9.544;2023-02-24T04:59:05;38.10;;;27.90;;
1467;SDS011;727;48.892;9.544;2023-02-24T05:01:34;35.03;;;23.00;;
1467;SDS011;727;48.892;9.544;2023-02-24T05:04:02;36.65;;;24.88;;
1467;SDS011;727;48.892;9.544;2023-02-24T05:06:29;29.65;;;24.70;;
1467;SDS011;727;48.892;9.544;2023-02-24T05:08:56;34.83;;;25.88;;
1467;SDS011;727;48.892;9.544;2023-02-24T05:11:25;37.25;;;26.70;;
1467;SDS011;727;48.892;9.544;2023-02-24T05:14:01;39.45;;;27.75;;
1467;SDS011;727;48.892;9.544;2023-02-24T05:16:29;50.13;;;31.33;;
1467;SDS011;727;48.892;9.544;2023-02-24T05:19:01;42.20;;;29.08;;
1467;SDS011;727;48.892;9.544;2023-02-24T05:21:51;40.47;;;30.55;;
1467;SDS011;727;48.892;9.544;2023-02-24T05:24:23;39.30;;;29.13;;
1467;SDS011;727;48.892;9.544;2023-02-24T05:26:51;38.92;;;28.83;;
1467;SDS011;727;48.892;9.544;2023-02-24T05:29:25;40.28;;;26.05;;
1467;SDS011;727;48.892;9.544;2023-02-24T05:31:56;33.83;;;26.38;;
1467;SDS011;727;48.892;9.544;2023-02-24T05:34:24;42.78;;;28.80;;
1467;SDS011;727;48.892;9.544;2023-02-24T05:36:54;42.10;;;30.05;;
1467;SDS011;727;48.892;9.544;2023-02-24T05:39:22;44.22;;;30.35;;
1467;SDS011;727;48.892;9.544;2023-02-24T05:41:50;53.90;;;34.15;;
1467;SDS011;727;48.892;9.544;2023-02-24T05:44:19;50.60;;;31.67;;
1467;SDS011;727;48.892;9.544;2023-02-24T05:46:52;50.72;;;34.28;;
1467;SDS011;727;48.892;9.544;2023-02-24T05:49:23;47.72;;;31.13;;
1467;SDS011;727;48.892;9.544;2023-02-24T05:51:53;45.47;;;30.45;;
1467;SDS011;727;48.892;9.544;2023-02-24T05:54:22;41.78;;;28.08;;
1467;SDS011;727;48.892;9.544;2023-02-24T05:56:53;46.25;;;31.02;;
1467;SDS011;727;48.892;9.544;2023-02-24T05:59:22;46.97;;;32.78;;
1467;SDS011;727;48.892;9.544;2023-02-24T06:01:58;44.72;;;32.13;;
1467;SDS011;727;48.892;9.544;2023-02-24T06:04:30;44.58;;;29.40;;
1467;SDS011;727;48.892;9.544;2023-02-24T06:07:06;44.83;;;33.25;;
1467;SDS011;727;48.892;9.544;2023-02-24T06:09:38;50.70;;;30.10;;
1467;SDS011;727;48.892;9.544;2023-02-24T06:12:06;39.40;;;29.60;;
1467;SDS011;727;48.892;9.544;2023-02-24T06:14:34;40.08;;;29.65;;
1467;SDS011;727;48.892;9.544;2023-02-24T06:17:02;44.13;;;31.30;;
1467;SDS011;727;48.892;9.544;2023-02-24T06:19:29;44.30;;;29.10;;
1467;SDS011;727;48.892;9.544;2023-02-24T06:21:57;46.90;;;32.92;;
1467;SDS011;727;48.892;9.544;2023-02-24T06:24:26;48.30;;;33.75;;
1467;SDS011;727;48.892;9.544;2023-02-24T06:26:53;53.55;;;36.58;;
1467;SDS011;727;48.892;9.544;2023-02-24T06:29:27;52.80;;;36.45;;
1467;SDS011;727;48.892;9.544;2023-02-24T06:31:55;50.22;;;35.42;;
1467;SDS011;727;48.892;9.544;2023-02-24T06:34:24;58.63;;;36.13;;
1467;SDS011;727;48.892;9.544;2023-02-24T06:36:51;49.35;;;35.00;;
1467;SDS011;727;48.892;9.544;2023-02-24T06:39:19;49.10;;;35.83;;
1467;SDS011;727;48.892;9.544;2023-02-24T06:41:47;54.28;;;38.33;;
1467;SDS011;727;48.892;9.544;2023-02-24T06:44:15;51.20;;;35.72;;
1467;SDS011;727;48.892;9.544;2023-02-24T06:46:48;64.22;;;39.17;;
1467;SDS011;727;48.892;9.544;2023-02-24T06:49:15;71.55;;;42.17;;
1467;SDS011;727;48.892;9.544;2023-02-24T06:51:43;64.10;;;37.28;;
1467;SDS011;727;48.892;9.544;2023-02-24T06:54:09;65.45;;;41.00;;
1467;SDS011;727;48.892;9.544;2023-02-24T06:56:36;52.35;;;34.17;;
1467;SDS011;727;48.892;9.544;2023-02-24T06:59:05;56.05;;;38.42;;
1467;SDS011;727;48.892;9.544;2023-02-24T07:01:36;61.45;;;38.47;;
1467;SDS011;727;48.892;9.544;2023-02-24T07:04:09;62.95;;;37.58;;
1467;SDS011;727;48.892;9.544;2023-02-24T07:06:44;57.78;;;38.60;;
1467;SDS011;727;48.892;9.544;2023-02-24T07:09:14;60.17;;;38.28;;
1467;SDS011;727;48.892;9.544;2023-02-24T07:11:43;59.92;;;39.47;;
1467;SDS011;727;48.892;9.544;2023-02-24T07:14:12;60.38;;;37.33;;
1467;SDS011;727;48.892;9.544;2023-02-24T07:16:40;65.30;;;36.67;;
1467;SDS011;727;48.892;9.544;2023-02-24T07:19:10;60.75;;;36.65;;
1467;SDS011;727;48.892;9.544;2023-02-24T07:21:39;51.33;;;35.40;;
1467;SDS011;727;48.892;9.544;2023-02-24T07:24:12;61.95;;;39.33;;
1467;SDS011;727;48.892;9.544;2023-02-24T07:26:53;64.15;;;38.60;;
1467;SDS011;727;48.892;9.544;2023-02-24T07:29:21;67.05;;;39.50;;
1467;SDS011;727;48.892;9.544;2023-02-24T07:31:48;60.13;;;35.83;;
1467;SDS011;727;48.892;9.544;2023-02-24T07:34:19;73.78;;;39.45;;
1467;SDS011;727;48.892;9.544;2023-02-24T07:36:48;69.75;;;36.28;;
1467;SDS011;727;48.892;9.544;2023-02-24T07:39:17;58.70;;;34.20;;
1467;SDS011;727;48.892;9.544;2023-02-24T07:41:47;65.45;;;37.70;;
1467;SDS011;727;48.892;9.544;2023-02-24T07:44:14;70.18;;;38.50;;
1467;SDS011;727;48.892;9.544;2023-02-24T07:46:42;70.20;;;35.88;;
1467;SDS011;727;48.892;9.544;2023-02-24T07:49:10;83.53;;;37.88;;
1467;SDS011;727;48.892;9.544;2023-02-24T07:51:39;80.30;;;36.20;;
1467;SDS011;727;48.892;9.544;2023-02-24T07:54:06;85.68;;;39.00;;
1467;SDS011;727;48.892;9.544;2023-02-24T07:56:36;72.22;;;36.67;;
1467;SDS011;727;48.892;9.544;2023-02-24T07:59:10;71.07;;;35.33;;
1467;SDS011;727;48.892;9.544;2023-02-24T08:01:40;70.32;;;37.85;;
1467;SDS011;727;48.892;9.544;2023-02-24T08:04:14;65.85;;;34.55;;
1467;SDS011;727;48.892;9.544;2023-02-24T08:06:41;62.90;;;35.50;;
1467;SDS011;727;48.892;9.544;2023-02-24T08:09:11;55.83;;;33.60;;
1467;SDS011;727;48.892;9.544;2023-02-24T08:11:43;64.53;;;32.17;;
1467;SDS011;727;48.892;9.544;2023-02-24T08:14:11;65.78;;;33.30;;
1467;SDS011;727;48.892;9.544;2023-02-24T08:16:39;59.55;;;34.85;;
1467;SDS011;727;48.892;9.544;2023-02-24T08:19:10;71.55;;;38.28;;
1467;SDS011;727;48.892;9.544;2023-02-24T08:21:41;66.38;;;35.78;;
1467;SDS011;727;48.892;9.544;2023-02-24T08:24:12;60.35;;;31.40;;
1467;SDS011;727;48.892;9.544;2023-02-24T08:26:46;64.38;;;34.78;;
1467;SDS011;727;48.892;9.544;2023-02-24T08:29:28;68.35;;;35.60;;
1467;SDS011;727;48.892;9.544;2023-02-24T08:31:55;77.03;;;36.90;;
1467;SDS011;727;48.892;9.544;2023-02-24T08:34:22;75.03;;;36.88;;
1467;SDS011;727;48.892;9.544;2023-02-24T08:37:01;77.00;;;38.22;;
1467;SDS011;727;48.892;9.544;2023-02-24T08:39:28;73.45;;;36.95;;
1467;SDS011;727;48.892;9.544;2023-02-24T08:42:04;70.10;;;36.42;;
1467;SDS011;727;48.892;9.544;2023-02-24T08:44:31;66.18;;;35.10;;
1467;SDS011;727;48.892;9.544;2023-02-24T08:46:59;76.40;;;35.58;;
1467;SDS011;727;48.892;9.544;2023-02-24T08:49:29;69.43;;;35.22;;
1467;SDS011;727;48.892;9.544;2023-02-24T08:52:04;74.75;;;38.42;;
1467;SDS011;727;48.892;9.544;2023-02-24T08:54:31;72.95;;;35.80;;
1467;SDS011;727;48.892;9.544;2023-02-24T08:56:59;65.57;;;34.88;;
1467;SDS011;727;48.892;9.544;2023-02-24T08:59:34;74.78;;;36.42;;
1467;SDS011;727;48.892;9.544;2023-02-24T09:02:13;66.10;;;36.53;;
1467;SDS011;727;48.892;9.544;2023-02-24T09:04:49;71.57;;;39.83;;
1467;SDS011;727;48.892;9.544;2023-02-24T09:07:18;72.47;;;39.60;;
1467;SDS011;727;48.892;9.544;2023-02-24T09:09:49;83.82;;;41.85;;
1467;SDS011;727;48.892;9.544;2023-02-24T09:12:20;75.55;;;36.55;;
1467;SDS011;727;48.892;9.544;2023-02-24T09:15:08;73.10;;;37.92;;
1467;SDS011;727;48.892;9.544;2023-02-24T09:17:36;80.30;;;38.85;;
1467;SDS011;727;48.892;9.544;2023-02-24T09:20:14;87.35;;;43.40;;
1467;SDS011;727;48.892;9.544;2023-02-24T09:23:20;76.63;;;37.50;;
1467;SDS011;727;48.892;9.544;2023-02-24T09:25:54;67.80;;;35.50;;
1467;SDS011;727;48.892;9.544;2023-02-24T09:28:21;76.07;;;36.72;;
1467;SDS011;727;48.892;9.544;2023-02-24T09:30:54;76.70;;;36.08;;
1467;SDS011;727;48.892;9.544;2023-02-24T09:33:23;76.97;;;37.03;;
1467;SDS011;727;48.892;9.544;2023-02-24T09:35:56;78.60;;;36.55;;
1467;SDS011;727;48.892;9.544;2023-02-24T09:38:38;81.57;;;37.28;;
1467;SDS011;727;48.892;9.544;2023-02-24T09:41:29;86.78;;;39.45;;
1467;SDS011;727;48.892;9.544;2023-02-24T09:44:11;74.00;;;35.95;;
1467;SDS011;727;48.892;9.544;2023-02-24T09:46:44;75.90;;;39.08;;
1467;SDS011;727;48.892;9.544;2023-02-24T09:49:20;79.47;;;37.60;;
1467;SDS011;727;48.892;9.544;2023-02-24T09:51:49;70.03;;;35.50;;
1467;SDS011;727;48.892;9.544;2023-02-24T09:54:25;80.13;;;39.15;;
1467;SDS011;727;48.892;9.544;2023-02-24T09:56:57;81.25;;;35.88;;
1467;SDS011;727;48.892;9.544;2023-02-24T09:59:35;68.07;;;31.80;;
1467;SDS011;727;48.892;9.544;2023-02-24T10:02:23;58.10;;;31.67;;
1467;SDS011;727;48.892;9.544;2023-02-24T10:05:09;69.05;;;32.95;;
1467;SDS011;727;48.892;9.544;2023-02-24T10:07:47;52.72;;;29.40;;
1467;SDS011;727;48.892;9.544;2023-02-24T10:10:17;61.85;;;32.90;;
1467;SDS011;727;48.892;9.544;2023-02-24T10:12:52;54.75;;;29.70;;
1467;SDS011;727;48.892;9.544;2023-02-24T10:15:25;51.25;;;27.95;;
1467;SDS011;727;48.892;9.544;2023-02-24T10:18:26;60.42;;;30.05;;
1467;SDS011;727;48.892;9.544;2023-02-24T10:20:56;56.75;;;31.08;;
1467;SDS011;727;48.892;9.544;2023-02-24T10:23:28;61.65;;;31.33;;
1467;SDS011;727;48.892;9.544;2023-02-24T10:26:10;60.70;;;33.42;;
1467;SDS011;727;48.892;9.544;2023-02-24T10:28:55;58.95;;;33.03;;
1467;SDS011;727;48.892;9.544;2023-02-24T10:31:33;61.80;;;32.42;;
1467;SDS011;727;48.892;9.544;2023-02-24T10:34:11;65.00;;;32.78;;
1467;SDS011;727;48.892;9.544;2023-02-24T10:36:43;57.92;;;32.80;;
1467;SDS011;727;48.892;9.544;2023-02-24T10:39:15;52.45;;;31.77;;
1467;SDS011;727;48.892;9.544;2023-02-24T10:41:45;53.78;;;30.08;;
1467;SDS011;727;48.892;9.544;2023-02-24T10:44:18;42.45;;;28.23;;
1467;SDS011;727;48.892;9.544;2023-02-24T10:46:57;51.17;;;27.30;;
1467;SDS011;727;48.892;9.544;2023-02-24T10:49:39;50.05;;;24.30;;
1467;SDS011;727;48.892;9.544;2023-02-24T10:52:20;45.97;;;25.42;;
1467;SDS011;727;48.892;9.544;2023-02-24T10:55:01;52.83;;;23.80;;
1467;SDS011;727;48.892;9.544;2023-02-24T10:57:33;51.92;;;24.52;;
1467;SDS011;727;48.892;9.544;2023-02-24T11:00:13;49.35;;;27.90;;
1467;SDS011;727;48.892;9.544;2023-02-24T11:03:15;51.58;;;26.00;;
1467;SDS011;727;48.892;9.544;2023-02-24T11:06:01;52.28;;;27.77;;
1467;SDS011;727;48.892;9.544;2023-02-24T11:08:55;53.50;;;29.35;;
1467;SDS011;727;48.892;9.544;2023-02-24T11:11:42;54.17;;;27.38;;
1467;SDS011;727;48.892;9.544;2023-02-24T11:14:27;51.55;;;26.90;;
1467;SDS011;727;48.892;9.544;2023-02-24T11:17:17;47.20;;;25.92;;
1467;SDS011;727;48.892;9.544;2023-02-24T11:19:53;55.95;;;28.02;;
1467;SDS011;727;48.892;9.544;2023-02-24T11:22:29;65.10;;;30.70;;
1467;SDS011;727;48.892;9.544;2023-02-24T11:24:59;56.47;;;27.70;;
1467;SDS011;727;48.892;9.544;2023-02-24T11:27:31;54.13;;;27.02;;
1467;SDS011;727;48.892;9.544;2023-02-24T11:30:04;52.63;;;27.45;;
1467;SDS011;727;48.892;9.544;2023-02-24T11:32:47;57.97;;;29.85;;
1467;SDS011;727;48.892;9.544;2023-02-24T11:35:30;58.05;;;26.50;;
1467;SDS011;727;48.892;9.544;2023-02-24T11:38:09;56.13;;;29.30;;
1467;SDS011;727;48.892;9.544;2023-02-24T11:40:53;50.40;;;28.73;;
1467;SDS011;727;48.892;9.544;2023-02-24T11:43:26;54.90;;;27.48;;
1467;SDS011;727;48.892;9.544;2023-02-24T11:46:00;51.08;;;27.33;;
1467;SDS011;727;48.892;9.544;2023-02-24T11:48:35;57.90;;;28.05;;
1467;SDS011;727;48.892;9.544;2023-02-24T11:51:06;62.47;;;29.02;;
1467;SDS011;727;48.892;9.544;2023-02-24T11:53:39;55.67;;;27.90;;
1467;SDS011;727;48.892;9.544;2023-02-24T11:56:13;57.20;;;27.27;;
1467;SDS011;727;48.892;9.544;2023-02-24T11:58:49;50.42;;;26.33;;
1467;SDS011;727;48.892;9.544;2023-02-24T12:01:21;65.93;;;27.90;;
1467;SDS011;727;48.892;9.544;2023-02-24T12:03:58;45.95;;;24.85;;
1467;SDS011;727;48.892;9.544;2023-02-24T12:06:32;55.55;;;28.23;;
1467;SDS011;727;48.892;9.544;2023-02-24T12:09:10;52.55;;;26.80;;
1467;SDS011;727;48.892;9.544;2023-02-24T12:11:42;48.45;;;27.95;;
1467;SDS011;727;48.892;9.544;2023-02-24T12:14:20;51.50;;;25.50;;
1467;SDS011;727;48.892;9.544;2023-02-24T12:16:53;52.60;;;26.30;;
1467;SDS011;727;48.892;9.544;2023-02-24T12:19:28;51.35;;;26.90;;
1467;SDS011;727;48.892;9.544;2023-02-24T12:22:01;48.65;;;25.00;;
1467;SDS011;727;48.892;9.544;2023-02-24T12:24:38;51.60;;;26.23;;
1467;SDS011;727;48.892;9.544;2023-02-24T12:27:13;59.30;;;28.50;;
1467;SDS011;727;48.892;9.544;2023-02-24T12:29:46;45.33;;;23.40;;
1467;SDS011;727;48.892;9.544;2023-02-24T12:32:22;51.43;;;25.00;;
1467;SDS011;727;48.892;9.544;2023-02-24T12:34:59;41.80;;;25.92;;
1467;SDS011;727;48.892;9.544;2023-02-24T12:37:33;40.50;;;21.45;;
1467;SDS011;727;48.892;9.544;2023-02-24T12:40:27;39.27;;;23.10;;
1467;SDS011;727;48.892;9.544;2023-02-24T12:43:03;40.17;;;20.97;;
1467;SDS011;727;48.892;9.544;2023-02-24T12:45:39;45.97;;;22.63;;
1467;SDS011;727;48.892;9.544;2023-02-24T12:48:15;44.83;;;22.73;;
1467;SDS011;727;48.892;9.544;2023-02-24T12:50:55;39.90;;;22.27;;
1467;SDS011;727;48.892;9.544;2023-02-24T12:53:31;42.90;;;23.20;;
1467;SDS011;727;48.892;9.544;2023-02-24T12:56:06;44.13;;;24.00;;
1467;SDS011;727;48.892;9.544;2023-02-24T12:58:38;43.47;;;20.93;;
1467;SDS011;727;48.892;9.544;2023-02-24T13:01:11;39.10;;;20.00;;
1467;SDS011;727;48.892;9.544;2023-02-24T13:03:48;41.67;;;23.87;;
1467;SDS011;727;48.892;9.544;2023-02-24T13:06:24;44.70;;;22.97;;
1467;SDS011;727;48.892;9.544;2023-02-24T13:08:59;38.57;;;22.10;;
1467;SDS011;727;48.892;9.544;2023-02-24T13:11:35;41.03;;;21.60;;
1467;SDS011;727;48.892;9.544;2023-02-24T13:14:10;40.27;;;20.77;;
1467;SDS011;727;48.892;9.544;2023-02-24T13:16:41;39.03;;;21.67;;
1467;SDS011;727;48.892;9.544;2023-02-24T13:19:16;38.20;;;20.00;;
1467;SDS011;727;48.892;9.544;2023-02-24T13:21:53;35.30;;;18.87;;
1467;SDS011;727;48.892;9.544;2023-02-24T13:24:22;39.17;;;20.40;;
1467;SDS011;727;48.892;9.544;2023-02-24T13:26:51;34.30;;;18.43;;
1467;SDS011;727;48.892;9.544;2023-02-24T13:29:17;43.67;;;20.90;;
1467;SDS011;727;48.892;9.544;2023-02-24T13:31:45;40.33;;;21.13;;
1467;SDS011;727;48.892;9.544;2023-02-24T13:34:26;38.20;;;21.20;;
1467;SDS011;727;48.892;9.544;2023-02-24T13:36:55;43.73;;;21.00;;
1467;SDS011;727;48.892;9.544;2023-02-24T13:39:23;34.93;;;20.03;;
1467;SDS011;727;48.892;9.544;2023-02-24T13:42:02;40.50;;;20.45;;
1467;SDS011;727;48.892;9.544;2023-02-24T13:44:31;39.67;;;21.37;;
1467;SDS011;727;48.892;9.544;2023-02-24T13:50:00;37.77;;;20.27;;
1467;SDS011;727;48.892;9.544;2023-02-24T13:52:46;37.05;;;20.17;;
1467;SDS011;727;48.892;9.544;2023-02-24T13:55:36;39.60;;;19.87;;
1467;SDS011;727;48.892;9.544;2023-02-24T13:58:29;40.33;;;20.23;;
1467;SDS011;727;48.892;9.544;2023-02-24T14:01:07;40.20;;;21.52;;
1467;SDS011;727;48.892;9.544;2023-02-24T14:03:38;37.17;;;21.87;;
1467;SDS011;727;48.892;9.544;2023-02-24T14:06:12;32.30;;;18.73;;
1467;SDS011;727;48.892;9.544;2023-02-24T14:08:42;41.72;;;22.38;;
1467;SDS011;727;48.892;9.544;2023-02-24T14:11:11;39.40;;;23.07;;
1467;SDS011;727;48.892;9.544;2023-02-24T14:13:44;43.03;;;23.35;;
1467;SDS011;727;48.892;9.544;2023-02-24T14:16:16;53.63;;;27.67;;
1467;SDS011;727;48.892;9.544;2023-02-24T14:18:50;51.70;;;26.20;;
1467;SDS011;727;48.892;9.544;2023-02-24T14:21:19;58.07;;;29.83;;
1467;SDS011;727;48.892;9.544;2023-02-24T14:23:53;49.55;;;23.20;;
1467;SDS011;727;48.892;9.544;2023-02-24T14:26:21;48.85;;;22.83;;
1467;SDS011;727;48.892;9.544;2023-02-24T14:28:52;43.53;;;25.00;;
1467;SDS011;727;48.892;9.544;2023-02-24T14:31:21;51.03;;;26.40;;
1467;SDS011;727;48.892;9.544;2023-02-24T14:33:52;43.67;;;22.73;;
1467;SDS011;727;48.892;9.544;2023-02-24T14:36:23;55.28;;;27.40;;
1467;SDS011;727;48.892;9.544;2023-02-24T14:38:58;42.37;;;24.07;;
1467;SDS011;727;48.892;9.544;2023-02-24T14:41:27;42.22;;;23.42;;
1467;SDS011;727;48.892;9.544;2023-02-24T14:43:55;39.70;;;22.25;;
1467;SDS011;727;48.892;9.544;2023-02-24T14:46:22;42.63;;;21.02;;
1467;SDS011;727;48.892;9.544;2023-02-24T14:48:51;36.88;;;20.25;;
1467;SDS011;727;48.892;9.544;2023-02-24T14:51:20;42.50;;;21.45;;
1467;SDS011;727;48.892;9.544;2023-02-24T14:53:51;38.33;;;20.63;;
1467;SDS011;727;48.892;9.544;2023-02-24T14:56:20;34.38;;;20.27;;
1467;SDS011;727;48.892;9.544;2023-02-24T14:58:52;43.60;;;24.70;;
1467;SDS011;727;48.892;9.544;2023-02-24T15:01:25;44.50;;;26.88;;
1467;SDS011;727;48.892;9.544;2023-02-24T15:03:57;40.70;;;26.35;;
1467;SDS011;727;48.892;9.544;2023-02-24T15:06:27;55.50;;;24.80;;
1467;SDS011;727;48.892;9.544;2023-02-24T15:08:57;45.28;;;22.88;;
1467;SDS011;727;48.892;9.544;2023-02-24T15:11:28;40.65;;;24.10;;
1467;SDS011;727;48.892;9.544;2023-02-24T15:13:58;36.60;;;21.52;;
1467;SDS011;727;48.892;9.544;2023-02-24T15:16:28;37.13;;;22.05;;
1467;SDS011;727;48.892;9.544;2023-02-24T15:18:59;41.60;;;22.70;;
1467;SDS011;727;48.892;9.544;2023-02-24T15:21:27;40.22;;;23.58;;
1467;SDS011;727;48.892;9.544;2023-02-24T15:23:59;34.17;;;20.58;;
1467;SDS011;727;48.892;9.544;2023-02-24T15:26:28;35.70;;;20.38;;
1467;SDS011;727;48.892;9.544;2023-02-24T15:29:02;38.38;;;23.08;;
1467;SDS011;727;48.892;9.544;2023-02-24T15:31:38;48.35;;;22.38;;
1467;SDS011;727;48.892;9.544;2023-02-24T15:34:12;47.47;;;32.38;;
1467;SDS011;727;48.892;9.544;2023-02-24T15:36:44;46.15;;;23.88;;
1467;SDS011;727;48.892;9.544;2023-02-24T15:39:15;33.58;;;22.05;;
1467;SDS011;727;48.892;9.544;2023-02-24T15:41:47;41.80;;;23.23;;